createdAt,value
2018-02-17T00:01:39.805Z,23.03
2018-02-17T00:04:07.302Z,23.67
2018-02-17T00:06:34.830Z,26.27
2018-02-17T00:09:02.272Z,20.50
2018-02-17T00:11:30.545Z,25.50
2018-02-17T00:13:58.027Z,27.00
2018-02-17T00:16:26.274Z,24.87
2018-02-17T00:18:53.767Z,24.47
2018-02-17T00:21:22.009Z,21.97
2018-02-17T00:23:49.562Z,24.30
2018-02-17T00:26:17.778Z,22.60
2018-02-17T00:28:45.264Z,24.13
2018-02-17T00:31:12.739Z,22.20
2018-02-17T00:33:40.239Z,23.33
2018-02-17T00:36:09.691Z,24.63
2018-02-17T00:38:37.235Z,28.00
2018-02-17T00:41:05.510Z,27.23
2018-02-17T00:43:34.038Z,21.03
2018-02-17T00:46:01.524Z,20.80
2018-02-17T00:48:29.117Z,22.50
2018-02-17T00:50:57.366Z,26.23
2018-02-17T00:53:24.846Z,24.53
2018-02-17T00:55:53.103Z,22.50
2018-02-17T00:58:20.583Z,22.93
2018-02-17T01:00:48.726Z,25.70
2018-02-17T01:03:16.221Z,24.10
2018-02-17T01:05:44.499Z,25.87
2018-02-17T01:08:12.774Z,26.10
2018-02-17T01:10:41.027Z,21.53
2018-02-17T01:13:08.510Z,27.77
2018-02-17T01:15:36.758Z,21.40
2018-02-17T01:18:04.247Z,18.17
2018-02-17T01:20:31.731Z,22.80
2018-02-17T01:22:59.210Z,25.30
2018-02-17T01:25:26.707Z,25.70
2018-02-17T01:27:54.214Z,25.70
2018-02-17T01:30:21.699Z,20.07
2018-02-17T01:32:49.199Z,29.40
2018-02-17T01:35:16.677Z,22.50
2018-02-17T01:37:44.926Z,24.17
2018-02-17T01:40:12.503Z,24.10
2018-02-17T01:42:40.753Z,29.00
2018-02-17T01:45:08.232Z,23.87
2018-02-17T01:47:35.799Z,22.23
2018-02-17T01:50:04.059Z,24.60
2018-02-17T01:52:31.543Z,20.60
2018-02-17T01:54:59.806Z,20.20
2018-02-17T01:57:28.051Z,20.67
2018-02-17T01:59:55.532Z,23.13
2018-02-17T02:02:23.039Z,24.20
2018-02-17T02:04:50.572Z,22.93
2018-02-17T02:07:18.820Z,21.70
2018-02-17T02:09:47.078Z,18.73
2018-02-17T02:12:14.550Z,17.97
2018-02-17T02:14:42.023Z,27.30
2018-02-17T02:17:09.522Z,15.23
2018-02-17T02:19:36.993Z,14.33
2018-02-17T02:22:04.480Z,18.90
2018-02-17T02:24:31.976Z,16.37
2018-02-17T02:27:00.250Z,15.57
2018-02-17T02:29:28.491Z,17.03
2018-02-17T02:31:56.092Z,17.17
2018-02-17T02:34:24.346Z,16.63
2018-02-17T02:36:51.846Z,17.70
2018-02-17T02:39:19.336Z,14.03
2018-02-17T02:41:46.870Z,13.93
2018-02-17T02:44:14.355Z,14.67
2018-02-17T02:46:41.845Z,18.40
2018-02-17T02:49:10.100Z,18.93
2018-02-17T02:51:37.599Z,14.97
2018-02-17T02:54:05.864Z,18.40
2018-02-17T02:56:34.115Z,17.97
2018-02-17T02:59:01.594Z,16.20
2018-02-17T03:01:29.172Z,19.90
2018-02-17T03:03:57.431Z,17.30
2018-02-17T03:06:25.801Z,17.17
2018-02-17T03:08:53.299Z,16.70
2018-02-17T03:11:20.774Z,16.63
2018-02-17T03:13:48.256Z,20.43
2018-02-17T03:16:15.755Z,20.80
2018-02-17T03:18:44.004Z,17.10
2018-02-17T03:21:12.302Z,17.80
2018-02-17T03:23:40.563Z,19.10
2018-02-17T03:26:08.040Z,17.00
2018-02-17T03:28:36.284Z,17.07
2018-02-17T03:31:03.883Z,19.10
2018-02-17T03:33:32.122Z,19.63
2018-02-17T03:35:59.710Z,22.50
2018-02-17T03:38:27.980Z,18.73
2018-02-17T03:40:55.559Z,15.50
2018-02-17T03:43:23.811Z,15.47
2018-02-17T03:45:51.390Z,23.00
2018-02-17T03:48:19.657Z,17.60
2018-02-17T03:50:47.928Z,19.73
2018-02-17T03:53:15.431Z,18.67
2018-02-17T03:55:42.916Z,18.47
2018-02-17T03:58:10.393Z,20.20
2018-02-17T04:00:37.887Z,18.00
2018-02-17T04:03:05.386Z,21.83
2018-02-17T04:05:32.889Z,19.37
2018-02-17T04:08:01.152Z,16.17
2018-02-17T04:10:28.643Z,20.20
2018-02-17T04:12:56.126Z,19.13
2018-02-17T04:15:23.618Z,16.17
2018-02-17T04:17:52.626Z,15.13
2018-02-17T04:20:20.871Z,16.83
2018-02-17T04:22:48.371Z,19.20
2018-02-17T04:25:15.863Z,17.63
2018-02-17T04:27:43.355Z,15.70
2018-02-17T04:30:11.620Z,17.07
2018-02-17T04:32:39.111Z,21.30
2018-02-17T04:35:07.363Z,17.57
2018-02-17T04:37:34.859Z,14.77
2018-02-17T04:53:32.387Z,13.00
2018-02-17T04:55:59.893Z,13.00
2018-02-17T04:58:31.072Z,13.33
2018-02-17T05:14:24.726Z,15.00
2018-02-17T05:16:55.656Z,15.80
2018-02-17T05:19:24.706Z,16.17
2018-02-17T05:22:04.805Z,31.90
2018-02-17T05:37:57.776Z,15.97
2018-02-17T05:53:45.705Z,20.10
2018-02-17T05:56:13.983Z,16.10
2018-02-17T05:58:42.254Z,16.20
2018-02-17T06:01:09.752Z,15.60
2018-02-17T06:03:37.292Z,15.70
2018-02-17T06:06:05.539Z,14.47
2018-02-17T06:08:33.102Z,16.17
2018-02-17T06:11:00.574Z,15.97
2018-02-17T06:13:28.830Z,14.47
2018-02-17T06:15:56.415Z,16.03
2018-02-17T06:18:24.675Z,16.20
2018-02-17T06:20:52.159Z,15.20
2018-02-17T06:23:19.654Z,12.50
2018-02-17T06:25:47.138Z,13.40
2018-02-17T06:28:14.721Z,13.80
2018-02-17T06:30:42.982Z,12.17
2018-02-17T06:33:10.471Z,25.03
2018-02-17T06:35:38.019Z,15.57
2018-02-17T06:38:06.293Z,14.00
2018-02-17T06:40:34.566Z,13.23
2018-02-17T06:43:02.812Z,11.50
2018-02-17T06:45:30.401Z,12.73
2018-02-17T06:47:58.682Z,13.17
2018-02-17T06:50:26.967Z,13.70
2018-02-17T06:52:55.230Z,14.77
2018-02-17T06:55:23.483Z,12.17
2018-02-17T06:57:51.722Z,17.50
2018-02-17T07:00:19.218Z,39.30
2018-02-17T07:02:46.703Z,21.53
2018-02-17T07:05:14.952Z,14.20
2018-02-17T07:07:42.443Z,12.10
2018-02-17T07:10:09.919Z,20.70
2018-02-17T07:12:37.404Z,13.90
2018-02-17T07:15:04.897Z,19.03
2018-02-17T07:17:32.391Z,16.67
2018-02-17T07:19:59.871Z,14.13
2018-02-17T07:22:27.358Z,13.47
2018-02-17T07:24:54.834Z,12.77
2018-02-17T07:27:23.094Z,14.00
2018-02-17T07:29:50.578Z,13.40
2018-02-17T07:32:18.823Z,13.90
2018-02-17T07:34:46.316Z,15.97
2018-02-17T07:37:14.574Z,15.30
2018-02-17T07:39:42.061Z,18.03
2018-02-17T07:42:09.556Z,14.43
2018-02-17T07:44:37.151Z,12.47
2018-02-17T07:47:06.167Z,13.40
2018-02-17T07:49:34.410Z,13.90
2018-02-17T07:52:01.895Z,12.87
2018-02-17T07:54:30.141Z,15.63
2018-02-17T07:56:57.619Z,14.10
2018-02-17T07:59:25.880Z,12.97
2018-02-17T08:01:53.358Z,14.77
2018-02-17T08:04:21.610Z,12.80
2018-02-17T08:06:49.103Z,13.70
2018-02-17T08:09:16.651Z,13.27
2018-02-17T08:11:44.892Z,11.40
2018-02-17T08:14:12.383Z,11.20
2018-02-17T08:16:40.631Z,11.77
2018-02-17T08:19:08.108Z,10.83
2018-02-17T08:21:36.394Z,10.23
2018-02-17T08:24:04.638Z,10.20
2018-02-17T08:26:32.123Z,11.00
2018-02-17T08:28:59.616Z,11.83
2018-02-17T08:31:27.122Z,11.70
2018-02-17T08:33:54.711Z,10.43
2018-02-17T08:36:22.999Z,10.00
2018-02-17T08:38:51.267Z,10.77
2018-02-17T08:41:19.511Z,10.60
2018-02-17T08:43:46.997Z,11.57
2018-02-17T08:46:15.246Z,9.50
2018-02-17T08:48:42.727Z,10.37
2018-02-17T08:51:11.011Z,13.90
2018-02-17T08:53:39.291Z,14.27
2018-02-17T08:56:07.539Z,18.67
2018-02-17T08:58:35.839Z,19.30
2018-02-17T09:01:04.087Z,14.83
2018-02-17T09:03:31.596Z,11.93
2018-02-17T09:05:59.117Z,14.57
2018-02-17T09:08:26.599Z,14.03
2018-02-17T09:10:54.847Z,13.17
2018-02-17T09:13:22.343Z,10.03
2018-02-17T09:15:49.887Z,10.07
2018-02-17T09:18:18.258Z,10.33
2018-02-17T09:20:45.746Z,11.57
2018-02-17T09:23:13.227Z,10.47
2018-02-17T09:25:40.707Z,11.03
2018-02-17T09:28:08.302Z,11.60
2018-02-17T09:30:36.575Z,11.97
2018-02-17T09:33:04.813Z,10.77
2018-02-17T09:35:32.309Z,11.03
2018-02-17T09:38:00.603Z,10.17
2018-02-17T09:40:28.082Z,9.40
2018-02-17T09:42:55.572Z,10.57
2018-02-17T09:45:23.054Z,13.43
2018-02-17T09:47:50.544Z,9.97
2018-02-17T09:50:18.032Z,9.60
2018-02-17T09:52:45.540Z,9.40
2018-02-17T09:55:13.770Z,9.80
2018-02-17T09:57:41.264Z,10.23
2018-02-17T10:00:08.738Z,11.30
2018-02-17T10:02:37.006Z,11.27
2018-02-17T10:05:05.272Z,10.53
2018-02-17T10:07:33.518Z,10.30
2018-02-17T10:10:01.005Z,11.27
2018-02-17T10:12:28.510Z,10.70
2018-02-17T10:14:55.993Z,10.73
2018-02-17T10:17:23.477Z,11.40
2018-02-17T10:19:51.051Z,11.40
2018-02-17T10:22:19.326Z,10.47
2018-02-17T10:24:47.570Z,11.07
2018-02-17T10:27:15.164Z,12.17
2018-02-17T10:29:43.462Z,11.20
2018-02-17T10:32:11.002Z,11.50
2018-02-17T10:34:39.254Z,11.07
2018-02-17T10:37:06.840Z,11.03
2018-02-17T10:39:35.090Z,63.37
2018-02-17T10:42:03.353Z,56.03
2018-02-17T10:44:30.831Z,17.50
2018-02-17T10:46:58.317Z,13.63
2018-02-17T10:49:26.587Z,13.30
2018-02-17T10:51:54.829Z,10.80
2018-02-17T10:54:22.313Z,12.80
2018-02-17T10:56:50.606Z,12.07
2018-02-17T10:59:18.851Z,12.67
2018-02-17T11:01:47.051Z,11.50
2018-02-17T11:04:15.326Z,12.03
2018-02-17T11:06:43.563Z,12.13
2018-02-17T11:09:11.063Z,11.07
2018-02-17T11:11:39.315Z,12.53
2018-02-17T11:14:06.895Z,10.93
2018-02-17T11:16:35.147Z,12.00
2018-02-17T11:19:02.653Z,12.33
2018-02-17T11:21:30.222Z,10.93
2018-02-17T11:23:57.754Z,12.37
2018-02-17T11:26:26.026Z,15.90
2018-02-17T11:28:54.300Z,12.80
2018-02-17T11:31:22.546Z,13.40
2018-02-17T11:33:50.044Z,10.67
2018-02-17T11:36:18.308Z,11.90
2018-02-17T11:38:46.556Z,10.67
2018-02-17T11:41:14.046Z,12.10
2018-02-17T11:43:42.290Z,11.10
2018-02-17T11:46:09.827Z,12.13
2018-02-17T11:48:37.318Z,11.60
2018-02-17T11:51:04.806Z,95.07
2018-02-17T11:53:33.081Z,12.83
2018-02-17T11:56:00.547Z,11.70
2018-02-17T11:58:28.793Z,16.17
2018-02-17T12:00:56.277Z,13.03
2018-02-17T12:03:24.563Z,11.40
2018-02-17T12:05:52.823Z,16.23
2018-02-17T12:08:21.067Z,12.53
2018-02-17T12:10:48.562Z,13.10
2018-02-17T12:13:16.815Z,10.93
2018-02-17T12:15:44.389Z,11.73
2018-02-17T12:18:12.659Z,10.47
2018-02-17T12:20:40.143Z,10.93
2018-02-17T12:23:07.619Z,11.83
2018-02-17T12:25:35.105Z,12.07
2018-02-17T12:28:02.871Z,10.33
2018-02-17T12:30:30.366Z,11.60
2018-02-17T12:32:58.639Z,11.67
2018-02-17T12:35:26.897Z,13.20
2018-02-17T12:37:54.374Z,12.00
2018-02-17T12:40:22.655Z,12.70
2018-02-17T12:42:50.900Z,12.73
2018-02-17T12:45:18.386Z,13.50
2018-02-17T12:47:46.651Z,11.70
2018-02-17T12:50:14.890Z,13.77
2018-02-17T12:52:42.366Z,14.30
2018-02-17T12:55:09.958Z,13.97
2018-02-17T12:57:38.214Z,16.47
2018-02-17T13:00:07.198Z,14.77
2018-02-17T13:02:34.687Z,14.90
2018-02-17T13:05:03.001Z,16.73
2018-02-17T13:07:30.504Z,14.63
2018-02-17T13:09:57.993Z,15.77
2018-02-17T13:12:26.244Z,14.20
2018-02-17T13:14:53.742Z,15.07
2018-02-17T13:17:21.274Z,16.33
2018-02-17T13:19:49.571Z,15.17
2018-02-17T13:22:17.823Z,12.83
2018-02-17T13:24:45.396Z,15.10
2018-02-17T13:27:13.633Z,14.70
2018-02-17T13:29:41.103Z,14.83
2018-02-17T13:32:10.106Z,13.90
2018-02-17T13:34:37.748Z,13.43
2018-02-17T13:37:05.231Z,14.20
2018-02-17T13:39:32.801Z,14.90
2018-02-17T13:42:01.051Z,12.00
2018-02-17T13:44:28.525Z,12.40
2018-02-17T13:46:56.815Z,14.80
2018-02-17T13:49:25.091Z,13.13
2018-02-17T13:51:53.339Z,13.53
2018-02-17T13:54:21.639Z,13.60
2018-02-17T13:56:49.907Z,15.57
2018-02-17T13:59:17.385Z,14.00
2018-02-17T14:01:45.630Z,14.37
2018-02-17T14:04:13.111Z,12.33
2018-02-17T14:06:41.357Z,14.90
2018-02-17T14:09:08.948Z,16.97
2018-02-17T14:11:37.218Z,15.13
2018-02-17T14:14:05.499Z,13.90
2018-02-17T14:16:32.995Z,14.93
2018-02-17T14:19:00.482Z,22.17
2018-02-17T14:21:27.954Z,39.63
2018-02-17T14:23:55.533Z,19.07
2018-02-17T14:26:23.808Z,20.20
2018-02-17T14:28:52.056Z,16.80
2018-02-17T14:31:19.647Z,14.10
2018-02-17T14:33:47.895Z,13.60
2018-02-17T14:36:15.372Z,15.00
2018-02-17T14:38:43.644Z,15.20
2018-02-17T14:41:11.124Z,12.53
2018-02-17T14:43:39.363Z,14.83
2018-02-17T14:46:06.855Z,43.70
2018-02-17T14:48:35.103Z,15.43
2018-02-17T14:51:02.581Z,14.00
2018-02-17T14:53:30.843Z,14.13
2018-02-17T14:55:58.483Z,13.43
2018-02-17T14:58:25.958Z,13.70
2018-02-17T15:00:53.447Z,12.70
2018-02-17T15:03:21.718Z,13.00
2018-02-17T15:05:49.967Z,13.47
2018-02-17T15:08:18.263Z,13.23
2018-02-17T15:10:46.538Z,12.97
2018-02-17T15:13:14.083Z,31.57
2018-02-17T15:15:41.567Z,14.50
2018-02-17T15:18:09.838Z,12.10
2018-02-17T15:20:38.106Z,13.57
2018-02-17T15:23:06.360Z,12.17
2018-02-17T15:25:33.830Z,13.10
2018-02-17T15:28:01.306Z,13.40
2018-02-17T15:30:29.562Z,12.03
2018-02-17T15:32:57.288Z,11.63
2018-02-17T15:35:24.786Z,11.67
2018-02-17T15:37:52.286Z,10.73
2018-02-17T15:40:19.759Z,11.47
2018-02-17T15:42:47.244Z,11.70
2018-02-17T15:45:14.722Z,9.93
2018-02-17T15:47:42.196Z,8.37
2018-02-17T15:50:10.441Z,10.50
2018-02-17T15:52:38.038Z,10.20
2018-02-17T15:55:06.278Z,9.20
2018-02-17T15:57:33.775Z,9.33
2018-02-17T16:00:02.032Z,10.00
2018-02-17T16:02:29.613Z,8.23
2018-02-17T16:04:57.859Z,8.07
2018-02-17T16:07:25.435Z,9.03
2018-02-17T16:09:53.691Z,8.73
2018-02-17T16:12:21.174Z,8.77
2018-02-17T16:14:49.431Z,9.10
2018-02-17T16:17:16.903Z,8.70
2018-02-17T16:19:45.142Z,8.60
2018-02-17T16:22:12.680Z,9.83
2018-02-17T16:24:40.189Z,9.70
2018-02-17T16:27:07.759Z,8.67
2018-02-17T16:29:36.040Z,9.20
2018-02-17T16:32:04.281Z,10.23
2018-02-17T16:34:31.786Z,8.40
2018-02-17T16:37:00.106Z,8.40
2018-02-17T16:39:27.610Z,8.37
2018-02-17T16:41:55.872Z,8.60
2018-02-17T16:44:23.434Z,7.73
2018-02-17T16:46:50.919Z,7.97
2018-02-17T16:49:18.466Z,9.10
2018-02-17T16:51:47.674Z,7.60
2018-02-17T16:54:15.170Z,9.17
2018-02-17T16:56:42.682Z,8.77
2018-02-17T16:59:10.984Z,8.30
2018-02-17T17:01:38.454Z,8.00
2018-02-17T17:04:05.936Z,8.70
2018-02-17T17:06:33.544Z,9.30
2018-02-17T17:09:01.792Z,8.33
2018-02-17T17:11:29.278Z,9.80
2018-02-17T17:13:57.553Z,9.40
2018-02-17T17:16:25.797Z,10.07
2018-02-17T17:18:53.385Z,9.70
2018-02-17T17:21:21.660Z,9.57
2018-02-17T17:23:49.935Z,10.50
2018-02-17T17:26:18.179Z,43.17
2018-02-17T17:28:45.675Z,11.70
2018-02-17T17:31:14.194Z,10.60
2018-02-17T17:33:41.683Z,10.77
2018-02-17T17:36:09.179Z,11.47
2018-02-17T17:38:37.422Z,12.10
2018-02-17T17:41:04.899Z,11.53
2018-02-17T17:43:32.399Z,11.67
2018-02-17T17:45:59.878Z,11.60
2018-02-17T17:48:27.382Z,12.07
2018-02-17T17:50:55.659Z,12.17
2018-02-17T17:53:23.898Z,12.23
2018-02-17T17:55:51.366Z,12.10
2018-02-17T17:58:18.869Z,11.90
2018-02-17T18:00:46.402Z,13.20
2018-02-17T18:03:13.890Z,12.23
2018-02-17T18:05:41.378Z,14.00
2018-02-17T18:08:08.878Z,12.97
2018-02-17T18:10:37.150Z,13.80
2018-02-17T18:13:06.150Z,15.43
2018-02-17T18:15:34.423Z,15.13
2018-02-17T18:18:02.701Z,15.60
2018-02-17T18:20:30.998Z,16.73
2018-02-17T18:22:59.263Z,17.17
2018-02-17T18:25:27.507Z,15.70
2018-02-17T18:27:55.018Z,16.77
2018-02-17T18:30:22.497Z,16.93
2018-02-17T18:32:49.983Z,17.97
2018-02-17T18:35:17.483Z,17.00
2018-02-17T18:37:45.739Z,18.20
2018-02-17T18:40:13.215Z,20.00
2018-02-17T18:42:41.579Z,18.77
2018-02-17T18:45:09.851Z,20.20
2018-02-17T18:47:37.423Z,20.63
2018-02-17T18:50:05.671Z,19.50
2018-02-17T18:52:33.151Z,19.50
2018-02-17T18:55:01.394Z,19.43
2018-02-17T18:57:28.881Z,20.00
2018-02-17T18:59:57.179Z,20.00
2018-02-17T19:02:24.671Z,19.00
2018-02-17T19:04:52.204Z,18.20
2018-02-17T19:07:19.642Z,19.57
2018-02-17T19:09:47.888Z,18.40
2018-02-17T19:12:15.378Z,18.13
2018-02-17T19:14:43.618Z,19.73
2018-02-17T19:17:11.101Z,20.60
2018-02-17T19:19:39.378Z,20.63
2018-02-17T19:22:06.864Z,23.00
2018-02-17T19:24:34.414Z,20.30
2018-02-17T19:27:02.673Z,20.20
2018-02-17T19:29:30.155Z,19.80
2018-02-17T19:31:57.675Z,19.80
2018-02-17T19:34:25.190Z,20.27
2018-02-17T19:36:52.711Z,22.00
2018-02-17T19:39:20.967Z,19.60
2018-02-17T19:41:49.235Z,20.10
2018-02-17T19:44:16.727Z,18.37
2018-02-17T19:46:44.975Z,19.70
2018-02-17T19:49:12.459Z,19.37
2018-02-17T19:51:40.699Z,20.13
2018-02-17T19:54:08.175Z,20.10
2018-02-17T19:56:37.173Z,19.40
2018-02-17T19:59:04.652Z,19.90
2018-02-17T20:01:32.891Z,21.60
2018-02-17T20:04:00.394Z,21.20
2018-02-17T20:06:27.874Z,20.90
2018-02-17T20:08:55.370Z,20.87
2018-02-17T20:11:22.849Z,20.97
2018-02-17T20:13:51.128Z,23.67
2018-02-17T20:16:18.594Z,24.90
2018-02-17T20:18:46.870Z,22.60
2018-02-17T20:21:15.116Z,21.60
2018-02-17T20:23:42.624Z,22.40
2018-02-17T20:26:10.168Z,24.90
2018-02-17T20:28:38.437Z,23.90
2018-02-17T20:31:06.683Z,24.40
2018-02-17T20:33:34.283Z,25.33
2018-02-17T20:36:02.528Z,23.13
2018-02-17T20:38:30.003Z,23.80
2018-02-17T20:40:57.571Z,24.27
2018-02-17T20:43:25.878Z,23.07
2018-02-17T20:45:53.299Z,25.13
2018-02-17T20:48:21.559Z,25.13
2018-02-17T20:50:50.571Z,26.37
2018-02-17T20:53:18.816Z,27.03
2018-02-17T20:55:46.407Z,26.47
2018-02-17T20:58:14.687Z,26.10
2018-02-17T21:00:42.935Z,26.13
2018-02-17T21:03:10.426Z,27.07
2018-02-17T21:05:38.694Z,26.37
2018-02-17T21:08:06.973Z,26.73
2018-02-17T21:10:35.238Z,27.17
2018-02-17T21:13:02.714Z,28.83
2018-02-17T21:15:30.997Z,27.90
2018-02-17T21:17:58.570Z,26.03
2018-02-17T21:20:26.051Z,27.53
2018-02-17T21:22:53.537Z,32.40
2018-02-17T21:25:22.536Z,29.63
2018-02-17T21:27:50.123Z,29.27
2018-02-17T21:30:18.369Z,28.30
2018-02-17T21:32:45.867Z,29.20
2018-02-17T21:35:13.351Z,29.67
2018-02-17T21:37:40.841Z,26.93
2018-02-17T21:40:08.327Z,29.63
2018-02-17T21:42:36.600Z,28.23
2018-02-17T21:45:04.867Z,31.03
2018-02-17T21:47:32.367Z,30.30
2018-02-17T21:49:59.839Z,31.47
2018-02-17T21:52:27.352Z,30.47
2018-02-17T21:54:55.674Z,30.33
2018-02-17T21:57:23.138Z,30.80
2018-02-17T21:59:50.625Z,30.27
2018-02-17T22:02:18.118Z,30.67
2018-02-17T22:04:46.359Z,30.90
2018-02-17T22:07:13.874Z,31.30
2018-02-17T22:09:41.362Z,29.67
2018-02-17T22:12:08.840Z,30.33
2018-02-17T22:14:36.326Z,30.97
2018-02-17T22:17:04.624Z,32.20
2018-02-17T22:19:32.105Z,32.03
2018-02-17T22:21:59.594Z,31.20
2018-02-17T22:24:27.180Z,30.93
2018-02-17T22:26:56.238Z,32.75
2018-02-17T22:29:23.715Z,30.03
2018-02-17T22:31:51.382Z,32.30
2018-02-17T22:34:19.634Z,31.50
2018-02-17T22:36:47.116Z,31.57
2018-02-17T22:39:15.401Z,30.90
2018-02-17T22:41:43.674Z,31.70
2018-02-17T22:44:11.953Z,31.50
2018-02-17T22:46:40.209Z,30.37
2018-02-17T22:49:08.534Z,33.00
2018-02-17T22:51:36.067Z,30.87
2018-02-17T22:54:04.319Z,32.30
2018-02-17T22:56:31.899Z,33.07
2018-02-17T22:59:00.223Z,34.10
2018-02-17T23:01:27.715Z,32.77
2018-02-17T23:03:55.974Z,30.20
2018-02-17T23:06:23.464Z,31.40
2018-02-17T23:08:50.954Z,31.63
2018-02-17T23:11:18.491Z,30.67
2018-02-17T23:13:46.764Z,32.80
2018-02-17T23:16:15.046Z,31.83
2018-02-17T23:18:43.294Z,31.50
2018-02-17T23:21:11.534Z,31.40
2018-02-17T23:23:39.021Z,30.33
2018-02-17T23:26:06.496Z,33.50
2018-02-17T23:28:35.514Z,32.90
2018-02-17T23:31:03.791Z,31.90
2018-02-17T23:33:32.064Z,34.50
2018-02-17T23:36:00.337Z,33.00
2018-02-17T23:38:28.611Z,32.47
2018-02-17T23:40:56.853Z,32.23
2018-02-17T23:43:25.115Z,33.83
2018-02-17T23:45:52.615Z,32.23
2018-02-17T23:48:20.859Z,31.63
2018-02-17T23:50:48.341Z,31.17
2018-02-17T23:53:15.822Z,29.87
2018-02-17T23:55:44.072Z,32.57
2018-02-17T23:58:11.556Z,30.47
